Aviation Digital Data Service (ADDS)

Output produced by METARs form (1843 UTC 19 February 2017)
found at http://aviationweather.gov/adds/metars/
 
KGSO 191724Z 1918/2018 32008KT P6SM FEW035 FEW250 
     FM192200 35005KT P6SM SKC 
     FM201400 04004KT P6SM FEW250